MET'MAP v2.0
soon released !

Expected late october,
this new version will be
more efficient, smarter,
and hosted on a brand new
server x3 powerfull...
...and still free !


Not compatible ?
Try the mobile version !

LOG IN : | Subscribe | Disclaimer | Who is Orbifly ? |
ICAO code :

TAF - EGPO Stornoway - 27 Feb 2020 03:54 UTC - Data Source NOAA   


- Airport Elevation : 26 ft
- IATA code : SYY
- No reported NOTAMs.


EGPO - Stornoway

Latest METAR recorded : 2015/08/11 07:50 EGPO 110750Z 22007KT 9999 VCSH FEW011 SCT042 13/08 Q1016
TAF TAF EGPO
Valid from the 27 at 00:00 until the 27 at 09:00 UTC


262258Z 2700/2709 24009KT 9999 FEW020
TEMPO 2700/2709 25015G25KT 5000 SHRASN SHRAGS BKN010CB
PROB40
TEMPO 2700/2709 1200 SHSN

Source NOAA
ATIS : +44 1851 707 444


MET'MAP, your aeronautical weather chart ! - Copyright ORBIFLY December 2007

Programming & Development : Alexandra Zaïnal
Co-Developer : Marc-Olivier Méhu
Technical & hardware support : Manuel Goepfert
Concept & Financing : Baudouin d'Aumeries